createdAt,value
2018-04-02T00:01:16.572Z,3.43
2018-04-02T00:03:42.884Z,4.60
2018-04-02T00:06:09.199Z,4.47
2018-04-02T00:08:35.528Z,4.33
2018-04-02T00:11:02.644Z,3.90
2018-04-02T00:13:28.981Z,3.90
2018-04-02T00:15:55.324Z,3.80
2018-04-02T00:18:21.637Z,4.07
2018-04-02T00:20:47.964Z,4.00
2018-04-02T00:23:14.281Z,3.20
2018-04-02T00:25:40.608Z,3.40
2018-04-02T00:28:06.948Z,3.93
2018-04-02T00:30:33.293Z,3.70
2018-04-02T00:32:59.636Z,3.30
2018-04-02T00:35:25.975Z,3.70
2018-04-02T00:37:53.056Z,4.17
2018-04-02T00:40:19.370Z,3.50
2018-04-02T00:42:46.417Z,3.57
2018-04-02T00:45:13.489Z,3.73
2018-04-02T00:47:39.812Z,3.70
2018-04-02T00:50:06.136Z,2.47
2018-04-02T00:52:32.433Z,3.17
2018-04-02T00:54:58.755Z,3.20
2018-04-02T00:57:25.076Z,2.97
2018-04-02T00:59:51.429Z,3.80
2018-04-02T01:02:17.753Z,3.90
2018-04-02T01:04:44.856Z,3.20
2018-04-02T01:07:11.164Z,3.87
2018-04-02T01:09:38.285Z,2.90
2018-04-02T01:12:04.622Z,2.97
2018-04-02T01:14:30.936Z,3.80
2018-04-02T01:16:57.276Z,3.13
2018-04-02T01:19:23.590Z,3.13
2018-04-02T01:21:49.913Z,2.60
2018-04-02T01:24:16.225Z,3.70
2018-04-02T01:26:42.561Z,3.20
2018-04-02T01:29:08.925Z,3.17
2018-04-02T01:31:35.244Z,3.43
2018-04-02T01:34:01.585Z,2.80
2018-04-02T01:36:27.900Z,2.53
2018-04-02T01:38:54.226Z,3.20
2018-04-02T01:41:20.549Z,2.60
2018-04-02T01:43:46.861Z,2.80
2018-04-02T01:46:13.161Z,2.87
2018-04-02T01:48:40.245Z,3.40
2018-04-02T01:51:06.565Z,2.77
2018-04-02T01:53:32.878Z,3.20
2018-04-02T01:55:59.941Z,2.87
2018-04-02T01:58:26.266Z,2.90
2018-04-02T02:00:53.320Z,3.03
2018-04-02T02:03:19.677Z,2.70
2018-04-02T02:05:46.009Z,2.80
2018-04-02T02:08:12.344Z,2.97
2018-04-02T02:10:38.671Z,2.13
2018-04-02T02:13:05.020Z,2.87
2018-04-02T02:15:31.348Z,2.70
2018-04-02T02:17:57.681Z,2.70
2018-04-02T02:20:24.037Z,3.17
2018-04-02T02:22:50.409Z,2.33
2018-04-02T02:25:16.744Z,2.43
2018-04-02T02:27:43.058Z,2.63
2018-04-02T02:30:10.113Z,2.30
2018-04-02T02:32:37.167Z,2.57
2018-04-02T02:35:03.520Z,2.47
2018-04-02T02:37:29.849Z,2.47
2018-04-02T02:39:56.169Z,2.60
2018-04-02T02:42:22.499Z,3.00
2018-04-02T02:44:48.913Z,2.73
2018-04-02T02:47:15.253Z,2.33
2018-04-02T02:49:41.581Z,3.03
2018-04-02T02:52:08.633Z,2.87
2018-04-02T02:54:35.000Z,2.73
2018-04-02T02:57:01.338Z,2.70
2018-04-02T02:59:27.664Z,2.80
2018-04-02T03:01:53.982Z,3.57
2018-04-02T03:04:20.276Z,2.87
2018-04-02T03:06:47.332Z,2.87
2018-04-02T03:09:14.403Z,3.10
2018-04-02T03:11:40.738Z,3.40
2018-04-02T03:14:07.092Z,3.27
2018-04-02T03:16:33.389Z,3.20
2018-04-02T03:18:59.700Z,3.37
2018-04-02T03:21:26.762Z,2.90
2018-04-02T03:23:53.094Z,3.23
2018-04-02T03:26:19.414Z,3.43
2018-04-02T03:28:45.744Z,3.00
2018-04-02T03:31:12.069Z,2.80
2018-04-02T03:33:38.480Z,3.00
2018-04-02T03:36:04.772Z,2.77
2018-04-02T03:38:31.093Z,2.53
2018-04-02T03:40:57.417Z,2.80
2018-04-02T03:43:23.743Z,2.93
2018-04-02T03:45:50.068Z,2.77
2018-04-02T03:48:17.158Z,2.70
2018-04-02T03:50:43.512Z,2.83
2018-04-02T03:53:09.903Z,2.90
2018-04-02T03:55:36.243Z,2.67
2018-04-02T03:58:02.552Z,3.30
2018-04-02T04:00:28.880Z,2.80
2018-04-02T04:02:55.178Z,2.60
2018-04-02T04:05:21.492Z,2.93
2018-04-02T04:07:47.806Z,3.27
2018-04-02T04:10:14.101Z,3.23
2018-04-02T04:12:40.425Z,3.20
2018-04-02T04:15:07.510Z,2.70
2018-04-02T04:17:33.841Z,3.63
2018-04-02T04:20:00.171Z,3.80
2018-04-02T04:22:26.496Z,3.53
2018-04-02T04:24:52.873Z,3.57
2018-04-02T04:27:19.204Z,3.00
2018-04-02T04:29:45.564Z,2.67
2018-04-02T04:32:11.920Z,2.87
2018-04-02T04:34:38.250Z,3.50
2018-04-02T04:37:04.600Z,3.43
2018-04-02T04:39:30.924Z,3.73
2018-04-02T04:41:57.253Z,3.87
2018-04-02T04:44:23.569Z,3.90
2018-04-02T04:46:49.877Z,4.00
2018-04-02T04:49:16.969Z,3.60
2018-04-02T04:51:43.316Z,3.80
2018-04-02T04:54:09.686Z,2.87
2018-04-02T04:56:36.772Z,3.17
2018-04-02T04:59:03.092Z,2.50
2018-04-02T05:01:29.415Z,2.53
2018-04-02T05:03:55.761Z,2.97
2018-04-02T05:06:22.090Z,2.80
2018-04-02T05:08:48.421Z,2.63
2018-04-02T05:11:14.760Z,2.33
2018-04-02T05:13:41.088Z,2.70
2018-04-02T05:16:07.413Z,3.20
2018-04-02T05:18:33.748Z,8.40
2018-04-02T05:21:00.085Z,9.70
2018-04-02T05:23:26.413Z,999.90
2018-04-02T05:25:52.740Z,25.13
2018-04-02T05:28:19.072Z,14.53
2018-04-02T05:30:45.400Z,8.90
2018-04-02T05:33:11.706Z,999.90
2018-04-02T05:35:38.771Z,999.90
2018-04-02T05:38:05.112Z,999.90
2018-04-02T05:40:31.462Z,999.90
2018-04-02T05:42:57.791Z,999.90
2018-04-02T05:45:24.123Z,999.90
2018-04-02T05:47:50.451Z,999.90
2018-04-02T05:50:16.778Z,999.90
2018-04-02T05:52:43.122Z,999.90
2018-04-02T05:55:09.440Z,999.90
2018-04-02T05:57:35.780Z,999.90
2018-04-02T06:00:02.169Z,999.90
2018-04-02T06:02:29.239Z,999.90
2018-04-02T06:04:55.557Z,14.07
2018-04-02T06:07:21.885Z,9.10
2018-04-02T06:09:48.233Z,7.50
2018-04-02T06:12:14.540Z,5.83
2018-04-02T06:14:41.584Z,4.73
2018-04-02T06:17:08.648Z,5.10
2018-04-02T06:19:35.009Z,4.27
2018-04-02T06:22:01.308Z,3.93
2018-04-02T06:24:27.621Z,3.67
2018-04-02T06:26:54.684Z,3.40
2018-04-02T06:29:21.012Z,2.60
2018-04-02T06:31:47.337Z,3.10
2018-04-02T06:34:14.384Z,3.03
2018-04-02T06:36:41.469Z,3.23
2018-04-02T06:39:07.808Z,3.33
2018-04-02T06:41:34.152Z,2.60
2018-04-02T06:44:00.467Z,2.50
2018-04-02T06:46:26.800Z,2.13
2018-04-02T06:48:53.140Z,2.90
2018-04-02T06:51:19.456Z,2.50
2018-04-02T06:53:45.795Z,2.20
2018-04-02T06:56:12.131Z,2.40
2018-04-02T06:58:38.452Z,2.60
2018-04-02T07:01:04.764Z,2.43
2018-04-02T07:03:31.113Z,2.33
2018-04-02T07:05:57.437Z,3.05
2018-04-02T07:08:23.745Z,3.35
2018-04-02T07:10:50.054Z,2.58
2018-04-02T07:13:17.096Z,1.92
2018-04-02T07:15:43.412Z,2.08
2018-04-02T07:18:09.752Z,1.77
2018-04-02T07:20:36.062Z,1.77
2018-04-02T07:23:02.393Z,1.48
2018-04-02T07:25:28.708Z,1.70
2018-04-02T07:27:55.053Z,2.05
2018-04-02T07:30:21.387Z,1.83
2018-04-02T07:32:47.695Z,1.60
2018-04-02T07:35:13.997Z,1.90
2018-04-02T07:37:41.142Z,1.85
2018-04-02T07:40:08.228Z,1.70
2018-04-02T07:42:34.550Z,1.37
2018-04-02T07:45:00.936Z,1.37
2018-04-02T07:47:27.286Z,1.52
2018-04-02T07:49:54.341Z,1.40
2018-04-02T07:52:21.425Z,1.70
2018-04-02T07:54:47.760Z,1.30
2018-04-02T07:57:14.060Z,1.70
2018-04-02T07:59:40.372Z,1.52
2018-04-02T08:02:07.434Z,1.33
2018-04-02T08:04:33.762Z,1.30
2018-04-02T08:07:00.812Z,1.50
2018-04-02T08:09:27.151Z,1.23
2018-04-02T08:11:53.471Z,1.63
2018-04-02T08:14:20.552Z,1.40
2018-04-02T08:16:46.864Z,1.10
2018-04-02T08:19:13.172Z,1.63
2018-04-02T08:21:40.243Z,1.53
2018-04-02T08:24:06.557Z,1.17
2018-04-02T08:26:33.628Z,1.00
2018-04-02T08:28:59.972Z,1.13
2018-04-02T08:31:26.312Z,1.30
2018-04-02T08:33:52.641Z,1.07
2018-04-02T08:36:18.973Z,1.43
2018-04-02T08:38:45.371Z,1.37
2018-04-02T08:41:11.622Z,1.30
2018-04-02T08:43:38.037Z,0.90
2018-04-02T08:46:05.090Z,1.00
2018-04-02T08:48:31.408Z,0.90
2018-04-02T08:50:58.499Z,0.93
2018-04-02T08:53:24.852Z,0.90
2018-04-02T08:55:51.169Z,0.77
2018-04-02T08:58:17.517Z,1.10
2018-04-02T09:00:43.866Z,0.90
2018-04-02T09:03:10.924Z,0.80
2018-04-02T09:05:38.020Z,1.13
2018-04-02T09:08:04.331Z,0.90
2018-04-02T09:10:30.648Z,1.00
2018-04-02T09:12:56.936Z,1.00
2018-04-02T09:15:23.230Z,1.10
2018-04-02T09:17:49.525Z,0.90
2018-04-02T09:20:16.613Z,0.80
2018-04-02T09:22:42.925Z,0.70
2018-04-02T09:25:09.289Z,0.90
2018-04-02T09:27:35.640Z,0.77
2018-04-02T09:30:01.956Z,0.80
2018-04-02T09:32:28.300Z,0.67
2018-04-02T09:34:54.668Z,0.93
2018-04-02T09:37:21.740Z,0.73
2018-04-02T09:39:48.056Z,0.60
2018-04-02T09:42:14.440Z,0.73
2018-04-02T09:44:40.789Z,0.87
2018-04-02T09:47:07.104Z,0.70
2018-04-02T09:49:33.423Z,1.23
2018-04-02T09:51:59.744Z,0.67
2018-04-02T09:54:26.047Z,0.73
2018-04-02T09:56:52.368Z,0.90
2018-04-02T09:59:19.505Z,0.90
2018-04-02T10:01:45.801Z,1.00
2018-04-02T10:04:12.127Z,1.00
2018-04-02T10:06:38.460Z,0.90
2018-04-02T10:09:04.848Z,0.90
2018-04-02T10:11:31.213Z,0.90
2018-04-02T10:13:57.553Z,0.90
2018-04-02T10:16:23.876Z,0.70
2018-04-02T10:18:50.184Z,0.80
2018-04-02T10:21:16.508Z,0.70
2018-04-02T10:23:42.825Z,0.70
2018-04-02T10:26:09.894Z,0.60
2018-04-02T10:28:36.236Z,0.70
2018-04-02T10:31:02.572Z,0.83
2018-04-02T10:33:28.917Z,0.93
2018-04-02T10:35:55.257Z,0.57
2018-04-02T10:38:21.580Z,0.60
2018-04-02T10:40:47.897Z,0.70
2018-04-02T10:43:14.210Z,0.80
2018-04-02T10:45:40.537Z,0.80
2018-04-02T10:48:06.856Z,0.70
2018-04-02T10:50:33.912Z,0.87
2018-04-02T10:53:00.236Z,0.90
2018-04-02T10:55:27.255Z,0.70
2018-04-02T10:57:53.579Z,0.73
2018-04-02T11:00:19.912Z,0.70
2018-04-02T11:02:46.233Z,0.80
2018-04-02T11:05:12.544Z,0.70
2018-04-02T11:07:38.868Z,0.90
2018-04-02T11:10:05.200Z,0.77
2018-04-02T11:12:31.558Z,0.73
2018-04-02T11:14:57.854Z,0.73
2018-04-02T11:17:24.161Z,0.87
2018-04-02T11:19:51.229Z,0.67
2018-04-02T11:22:17.540Z,0.73
2018-04-02T11:24:44.619Z,0.90
2018-04-02T11:27:10.945Z,0.90
2018-04-02T11:29:37.258Z,1.03
2018-04-02T11:32:03.611Z,0.80
2018-04-02T11:34:29.928Z,0.70
2018-04-02T11:36:56.228Z,0.60
2018-04-02T11:39:22.559Z,0.90
2018-04-02T11:41:48.841Z,0.70
2018-04-02T11:44:15.153Z,0.80
2018-04-02T11:46:41.468Z,0.97
2018-04-02T11:49:08.528Z,1.00
2018-04-02T11:51:34.849Z,0.90
2018-04-02T11:54:01.932Z,1.33
2018-04-02T11:56:28.232Z,0.83
2018-04-02T11:58:55.304Z,0.80
2018-04-02T12:01:21.649Z,0.90
2018-04-02T12:03:48.043Z,0.93
2018-04-02T12:06:15.128Z,0.73
2018-04-02T12:08:41.421Z,0.90
2018-04-02T12:11:08.510Z,1.00
2018-04-02T12:13:34.800Z,0.67
2018-04-02T12:16:01.847Z,0.73
2018-04-02T12:18:28.921Z,0.73
2018-04-02T12:20:55.305Z,0.70
2018-04-02T12:23:21.601Z,0.80
2018-04-02T12:25:47.961Z,0.70
2018-04-02T12:28:14.300Z,0.80
2018-04-02T12:30:41.344Z,0.60
2018-04-02T12:33:07.665Z,0.60
2018-04-02T12:35:33.997Z,0.53
2018-04-02T12:38:00.304Z,0.70
2018-04-02T12:40:26.629Z,0.77
2018-04-02T12:42:52.952Z,0.63
2018-04-02T12:45:19.266Z,0.50
2018-04-02T12:47:45.618Z,0.43
2018-04-02T12:50:11.977Z,0.50
2018-04-02T12:52:38.287Z,0.53
2018-04-02T12:55:04.634Z,0.57
2018-04-02T12:57:30.934Z,0.50
2018-04-02T12:59:57.240Z,0.50
2018-04-02T13:02:24.327Z,0.60
2018-04-02T13:04:50.643Z,0.40
2018-04-02T13:07:16.978Z,0.40
2018-04-02T13:09:43.516Z,0.40
2018-04-02T13:12:09.822Z,0.33
2018-04-02T13:14:36.165Z,0.33
2018-04-02T13:17:02.478Z,0.50
2018-04-02T13:19:29.565Z,0.43
2018-04-02T13:21:56.601Z,0.50
2018-04-02T13:24:22.948Z,0.60
2018-04-02T13:26:49.316Z,0.40
2018-04-02T13:29:15.704Z,0.50
2018-04-02T13:31:42.094Z,0.50
2018-04-02T13:34:08.412Z,0.40
2018-04-02T13:36:35.901Z,0.60
2018-04-02T13:39:02.424Z,0.73
2018-04-02T13:41:29.491Z,0.67
2018-04-02T13:43:55.848Z,0.73
2018-04-02T13:46:22.172Z,0.60
2018-04-02T13:48:48.487Z,0.60
2018-04-02T13:51:14.856Z,0.40
2018-04-02T13:53:41.177Z,0.40
2018-04-02T13:56:07.502Z,0.40
2018-04-02T13:58:33.824Z,0.47
2018-04-02T14:01:00.135Z,0.50
2018-04-02T14:03:26.527Z,0.47
2018-04-02T14:05:52.840Z,0.37
2018-04-02T14:08:19.222Z,0.40
2018-04-02T14:10:46.306Z,0.53
2018-04-02T14:13:12.637Z,0.60
2018-04-02T14:15:38.984Z,0.50
2018-04-02T14:18:05.302Z,0.70
2018-04-02T14:20:31.713Z,0.50
2018-04-02T14:22:58.064Z,0.40
2018-04-02T14:25:24.401Z,0.57
2018-04-02T14:27:50.718Z,0.70
2018-04-02T14:30:17.073Z,0.40
2018-04-02T14:32:43.397Z,0.50
2018-04-02T14:35:09.826Z,0.70
2018-04-02T14:37:36.163Z,0.60
2018-04-02T14:40:02.544Z,0.50
2018-04-02T14:42:29.588Z,0.53
2018-04-02T14:44:56.716Z,0.47
2018-04-02T14:47:23.023Z,0.50
2018-04-02T14:49:49.390Z,0.30
2018-04-02T14:52:15.672Z,0.50
2018-04-02T14:54:42.024Z,0.50
2018-04-02T14:57:08.343Z,0.40
2018-04-02T14:59:34.658Z,0.47
2018-04-02T15:02:00.973Z,0.50
2018-04-02T15:04:27.308Z,0.50
2018-04-02T15:06:53.607Z,0.43
2018-04-02T15:09:19.936Z,0.50
2018-04-02T15:11:47.823Z,0.60
2018-04-02T15:14:14.920Z,0.40
2018-04-02T15:16:41.257Z,0.43
2018-04-02T15:19:07.590Z,0.50
2018-04-02T15:21:33.894Z,0.40
2018-04-02T15:24:00.235Z,2.93
2018-04-02T15:26:26.537Z,1.40
2018-04-02T15:28:52.888Z,1.10
2018-04-02T15:31:19.175Z,0.80
2018-04-02T15:33:46.237Z,0.90
2018-04-02T15:36:13.287Z,1.10
2018-04-02T15:38:39.620Z,0.63
2018-04-02T15:41:06.677Z,0.57
2018-04-02T15:43:33.045Z,0.50
2018-04-02T15:45:59.336Z,0.67
2018-04-02T15:48:25.660Z,0.50
2018-04-02T15:50:52.763Z,0.80
2018-04-02T15:53:19.067Z,0.50
2018-04-02T15:55:45.372Z,0.50
2018-04-02T15:58:12.412Z,0.67
2018-04-02T16:00:39.485Z,0.90
2018-04-02T16:03:05.805Z,0.87
2018-04-02T16:05:32.132Z,0.60
2018-04-02T16:07:59.189Z,1.00
2018-04-02T16:10:25.501Z,1.10
2018-04-02T16:12:52.597Z,0.50
2018-04-02T16:15:18.945Z,0.50
2018-04-02T16:17:45.269Z,0.60
2018-04-02T16:20:11.591Z,0.50
2018-04-02T16:22:37.918Z,0.40
2018-04-02T16:25:04.260Z,0.50
2018-04-02T16:27:30.614Z,0.40
2018-04-02T16:29:56.924Z,0.50
2018-04-02T16:32:23.264Z,0.50
2018-04-02T16:34:49.633Z,0.40
2018-04-02T16:37:16.669Z,0.30
2018-04-02T16:39:43.720Z,0.40
2018-04-02T16:42:10.813Z,0.40
2018-04-02T16:44:37.139Z,0.33
2018-04-02T16:47:03.460Z,0.40
2018-04-02T16:49:29.781Z,0.30
2018-04-02T16:51:56.107Z,0.40
2018-04-02T16:54:23.160Z,0.20
2018-04-02T16:56:50.230Z,0.50
2018-04-02T16:59:16.615Z,0.37
2018-04-02T17:01:42.910Z,0.33
2018-04-02T17:04:09.241Z,0.50
2018-04-02T17:06:35.565Z,0.40
2018-04-02T17:09:01.904Z,0.40
2018-04-02T17:11:28.266Z,0.40
2018-04-02T17:13:54.572Z,0.37
2018-04-02T17:16:20.890Z,0.40
2018-04-02T17:18:47.184Z,0.37
2018-04-02T17:21:13.500Z,0.40
2018-04-02T17:23:40.561Z,0.30
2018-04-02T17:26:07.588Z,0.30
2018-04-02T17:28:33.906Z,0.43
2018-04-02T17:31:00.231Z,0.37
2018-04-02T17:33:26.568Z,0.50
2018-04-02T17:35:53.001Z,0.43
2018-04-02T17:38:19.312Z,0.37
2018-04-02T17:40:45.587Z,0.57
2018-04-02T17:43:12.751Z,0.40
2018-04-02T17:45:39.813Z,0.60
2018-04-02T17:48:06.124Z,0.57
2018-04-02T17:50:33.213Z,0.80
2018-04-02T17:52:59.558Z,0.70
2018-04-02T17:55:25.869Z,0.97
2018-04-02T17:57:52.408Z,0.50
2018-04-02T18:00:18.776Z,0.80
2018-04-02T18:02:45.077Z,0.93
2018-04-02T18:05:11.756Z,0.60
2018-04-02T18:07:38.273Z,0.67
2018-04-02T18:10:04.555Z,0.73
2018-04-02T18:12:30.896Z,0.93
2018-04-02T18:14:57.222Z,0.90
2018-04-02T18:17:23.547Z,0.80
2018-04-02T18:19:49.897Z,0.83
2018-04-02T18:22:16.197Z,0.70
2018-04-02T18:24:43.253Z,0.90
2018-04-02T18:27:09.562Z,0.70
2018-04-02T18:29:36.629Z,0.60
2018-04-02T18:32:03.716Z,0.70
2018-04-02T18:34:30.043Z,1.00
2018-04-02T18:36:56.845Z,0.80
2018-04-02T18:39:23.256Z,0.80
2018-04-02T18:41:49.575Z,1.13
2018-04-02T18:44:15.912Z,0.80
2018-04-02T18:46:42.278Z,0.80
2018-04-02T18:49:08.615Z,0.87
2018-04-02T18:51:34.948Z,0.83
2018-04-02T18:54:01.244Z,0.80
2018-04-02T18:56:27.561Z,0.63
2018-04-02T18:58:53.878Z,0.63
2018-04-02T19:01:20.185Z,0.83
2018-04-02T19:03:46.493Z,0.60
2018-04-02T19:06:12.864Z,0.60
2018-04-02T19:08:39.240Z,0.60
2018-04-02T19:11:05.517Z,0.50
2018-04-02T19:13:31.893Z,0.60
2018-04-02T19:15:58.220Z,0.70
2018-04-02T19:18:24.534Z,0.50
2018-04-02T19:20:50.840Z,0.90
2018-04-02T19:23:17.136Z,0.67
2018-04-02T19:25:44.220Z,0.60
2018-04-02T19:28:10.548Z,1.00
2018-04-02T19:30:36.857Z,0.50
2018-04-02T19:33:03.208Z,0.67
2018-04-02T19:35:29.512Z,0.70
2018-04-02T19:37:56.606Z,0.60
2018-04-02T19:40:22.920Z,0.67
2018-04-02T19:42:49.214Z,0.53
2018-04-02T19:45:16.268Z,0.90
2018-04-02T19:47:43.323Z,0.60
2018-04-02T19:50:09.647Z,0.80
2018-04-02T19:52:36.693Z,0.70
2018-04-02T19:55:03.755Z,0.70
2018-04-02T19:57:30.076Z,0.80
2018-04-02T19:59:57.167Z,0.90
2018-04-02T20:02:23.477Z,1.13
2018-04-02T20:04:49.780Z,0.70
2018-04-02T20:07:16.892Z,0.60
2018-04-02T20:09:43.269Z,0.60
2018-04-02T20:12:09.688Z,0.70
2018-04-02T20:14:36.745Z,0.77
2018-04-02T20:17:03.820Z,0.90
2018-04-02T20:19:30.174Z,0.93
2018-04-02T20:21:56.567Z,1.10
2018-04-02T20:24:22.931Z,1.00
2018-04-02T20:26:49.301Z,0.97
2018-04-02T20:29:15.641Z,1.13
2018-04-02T20:31:41.964Z,0.93
2018-04-02T20:34:08.353Z,0.80
2018-04-02T20:36:34.705Z,0.77
2018-04-02T20:39:01.234Z,0.70
2018-04-02T20:41:28.285Z,0.70
2018-04-02T20:43:54.726Z,0.93
2018-04-02T20:46:21.070Z,0.70
2018-04-02T20:48:47.514Z,0.90
2018-04-02T20:51:13.873Z,0.70
2018-04-02T20:53:40.965Z,0.90
2018-04-02T20:56:07.490Z,1.00
2018-04-02T20:58:33.819Z,0.90
2018-04-02T21:01:00.140Z,0.90
2018-04-02T21:03:26.476Z,0.90
2018-04-02T21:05:52.780Z,1.03
2018-04-02T21:08:19.852Z,1.30
2018-04-02T21:10:46.218Z,1.20
2018-04-02T21:13:12.570Z,1.10
2018-04-02T21:15:39.065Z,0.73
2018-04-02T21:18:05.348Z,1.00
2018-04-02T21:20:32.448Z,0.60
2018-04-02T21:22:59.900Z,0.80
2018-04-02T21:25:26.245Z,0.70
2018-04-02T21:27:52.579Z,0.63
2018-04-02T21:30:20.904Z,0.60
2018-04-02T21:32:47.961Z,0.53
2018-04-02T21:35:14.362Z,0.70
2018-04-02T21:37:41.999Z,0.80
2018-04-02T21:40:08.779Z,0.60
2018-04-02T21:42:35.838Z,0.70
2018-04-02T21:45:03.504Z,0.63
2018-04-02T21:47:30.091Z,0.70
2018-04-02T21:49:57.375Z,0.67
2018-04-02T21:52:24.417Z,0.60
2018-04-02T21:54:52.304Z,0.70
2018-04-02T21:57:19.583Z,0.70
2018-04-02T21:59:45.906Z,0.60
2018-04-02T22:02:12.223Z,0.80
2018-04-02T22:04:38.532Z,0.70
2018-04-02T22:07:05.632Z,0.60
2018-04-02T22:09:31.961Z,1.00
2018-04-02T22:11:58.305Z,0.77
2018-04-02T22:14:24.633Z,0.80
2018-04-02T22:16:50.957Z,0.60
2018-04-02T22:19:17.296Z,0.80
2018-04-02T22:21:43.612Z,0.93
2018-04-02T22:24:09.907Z,1.10
2018-04-02T22:26:36.977Z,0.70
2018-04-02T22:29:03.329Z,0.90
2018-04-02T22:31:29.657Z,0.80
2018-04-02T22:33:55.987Z,0.80
2018-04-02T22:36:22.347Z,0.77
2018-04-02T22:38:48.681Z,0.70
2018-04-02T22:41:15.085Z,0.80
2018-04-02T22:43:41.392Z,0.87
2018-04-02T22:46:07.710Z,0.70
2018-04-02T22:48:34.803Z,0.63
2018-04-02T22:51:01.152Z,0.90
2018-04-02T22:53:27.521Z,0.70
2018-04-02T22:55:54.565Z,0.93
2018-04-02T22:58:21.617Z,0.90
2018-04-02T23:00:48.705Z,0.80
2018-04-02T23:03:15.310Z,0.70
2018-04-02T23:05:42.360Z,0.87
2018-04-02T23:08:08.694Z,1.10
2018-04-02T23:10:35.033Z,0.87
2018-04-02T23:13:01.345Z,0.93
2018-04-02T23:15:28.412Z,0.70
2018-04-02T23:17:54.725Z,0.83
2018-04-02T23:20:21.050Z,0.60
2018-04-02T23:22:54.982Z,0.80
2018-04-02T23:25:21.300Z,0.90
2018-04-02T23:27:48.377Z,0.60
2018-04-02T23:30:15.089Z,1.00
2018-04-02T23:32:41.464Z,0.80
2018-04-02T23:35:07.802Z,0.80
2018-04-02T23:37:34.125Z,0.80
2018-04-02T23:40:00.450Z,0.90
2018-04-02T23:42:26.752Z,1.00
2018-04-02T23:44:53.076Z,0.83
2018-04-02T23:47:20.146Z,0.83
2018-04-02T23:49:46.897Z,0.87
2018-04-02T23:52:13.269Z,0.80
2018-04-02T23:54:39.577Z,0.60
2018-04-02T23:57:06.476Z,0.87
2018-04-02T23:59:33.664Z,0.83
